DEXXA EDRK-EDLN
Flight info
| Callsign | DEXXA |
|---|---|
| Flight time | 0h 45m |
| Altitude | 2100 |
| Route | VFR |
| Aircraft | P28R/L-V/N |
Departure
| Time | 2026-04-27 14:25 |
|---|---|
| Airport | Koblenz-Winningen Airfield (EDRK) |
Arrival
| Time | 2026-04-27 15:11 |
|---|---|
| Airport | Mönchengladbach Airport (EDLN) |
| Time | Latitude | Longitude | Altitude | Speed | Heading |
|---|---|---|---|---|---|
| 2026-04-27 14:23 | 50.32245 | 7.52225 | 655 ft | 0 kts | 254° |
| 2026-04-27 14:23 | 50.32245 | 7.52224 | 655 ft | 2 kts | 252° |
| 2026-04-27 14:24 | 50.32251 | 7.52159 | 655 ft | 8 kts | 354° |
| 2026-04-27 14:24 | 50.32298 | 7.52255 | 655 ft | 28 kts | 56° |
| 2026-04-27 14:24 | 50.32507 | 7.52773 | 668 ft | 75 kts | 52° |
| 2026-04-27 14:24 | 50.32806 | 7.53448 | 922 ft | 78 kts | 52° |
| 2026-04-27 14:25 | 50.33117 | 7.54191 | 1170 ft | 86 kts | 57° |
| 2026-04-27 14:25 | 50.33449 | 7.55003 | 1412 ft | 91 kts | 58° |
| 2026-04-27 14:25 | 50.33493 | 7.55908 | 1691 ft | 90 kts | 113° |
| 2026-04-27 14:25 | 50.32997 | 7.56538 | 1744 ft | 96 kts | 156° |
| 2026-04-27 14:26 | 50.32335 | 7.56690 | 1823 ft | 97 kts | 196° |
| 2026-04-27 14:26 | 50.31783 | 7.56077 | 1868 ft | 100 kts | 226° |
| 2026-04-27 14:26 | 50.31338 | 7.55213 | 1886 ft | 104 kts | 230° |
| 2026-04-27 14:26 | 50.30721 | 7.55097 | 1955 ft | 97 kts | 139° |
| 2026-04-27 14:27 | 50.30478 | 7.56018 | 2026 ft | 96 kts | 100° |
| 2026-04-27 14:27 | 50.30362 | 7.57094 | 2021 ft | 103 kts | 76° |
| 2026-04-27 14:27 | 50.30882 | 7.57773 | 2117 ft | 100 kts | 24° |
| 2026-04-27 14:27 | 50.31549 | 7.58196 | 2107 ft | 107 kts | 24° |
| 2026-04-27 14:28 | 50.32247 | 7.58642 | 2138 ft | 108 kts | 24° |
| 2026-04-27 14:28 | 50.32972 | 7.59013 | 2157 ft | 110 kts | 20° |
| 2026-04-27 14:28 | 50.33703 | 7.59356 | 2158 ft | 112 kts | 19° |
| 2026-04-27 14:28 | 50.34443 | 7.59805 | 2067 ft | 114 kts | 24° |
| 2026-04-27 14:29 | 50.35164 | 7.60279 | 2019 ft | 113 kts | 26° |
| 2026-04-27 14:29 | 50.35894 | 7.60778 | 1958 ft | 113 kts | 24° |
| 2026-04-27 14:29 | 50.36624 | 7.61231 | 1896 ft | 113 kts | 22° |
| 2026-04-27 14:29 | 50.37376 | 7.61492 | 1856 ft | 113 kts | 2° |
| 2026-04-27 14:30 | 50.38147 | 7.61142 | 1772 ft | 118 kts | 333° |
| 2026-04-27 14:30 | 50.38757 | 7.60309 | 1775 ft | 116 kts | 317° |
| 2026-04-27 14:30 | 50.39362 | 7.59431 | 1781 ft | 117 kts | 320° |
| 2026-04-27 14:30 | 50.39945 | 7.58578 | 1820 ft | 116 kts | 318° |
| 2026-04-27 14:31 | 50.40497 | 7.57618 | 1836 ft | 118 kts | 310° |
| 2026-04-27 14:31 | 50.40924 | 7.56523 | 1858 ft | 119 kts | 297° |
| 2026-04-27 14:31 | 50.41215 | 7.55294 | 1864 ft | 121 kts | 288° |
| 2026-04-27 14:31 | 50.41360 | 7.53982 | 1888 ft | 122 kts | 275° |
| 2026-04-27 14:32 | 50.41294 | 7.52666 | 1926 ft | 120 kts | 264° |
| 2026-04-27 14:32 | 50.41198 | 7.51355 | 1944 ft | 122 kts | 265° |
| 2026-04-27 14:32 | 50.41083 | 7.50038 | 1969 ft | 122 kts | 261° |
| 2026-04-27 14:32 | 50.40989 | 7.48725 | 1967 ft | 123 kts | 275° |
| 2026-04-27 14:33 | 50.41187 | 7.47439 | 2007 ft | 119 kts | 295° |
| 2026-04-27 14:33 | 50.41624 | 7.46335 | 2031 ft | 119 kts | 310° |
| 2026-04-27 14:33 | 50.42178 | 7.45374 | 2075 ft | 117 kts | 316° |
| 2026-04-27 14:33 | 50.42720 | 7.44429 | 2104 ft | 119 kts | 311° |
| 2026-04-27 14:34 | 50.43161 | 7.43316 | 2133 ft | 120 kts | 297° |
| 2026-04-27 14:34 | 50.43501 | 7.42124 | 2170 ft | 119 kts | 297° |
| 2026-04-27 14:34 | 50.43878 | 7.40950 | 2175 ft | 122 kts | 300° |
| 2026-04-27 14:34 | 50.44284 | 7.39768 | 2156 ft | 123 kts | 304° |
| 2026-04-27 14:35 | 50.44790 | 7.38691 | 2127 ft | 124 kts | 314° |
| 2026-04-27 14:35 | 50.45388 | 7.37717 | 2132 ft | 122 kts | 318° |
| 2026-04-27 14:35 | 50.46023 | 7.36829 | 2110 ft | 122 kts | 324° |
| 2026-04-27 14:35 | 50.46690 | 7.36008 | 2100 ft | 122 kts | 325° |
| 2026-04-27 14:36 | 50.47380 | 7.35209 | 2040 ft | 123 kts | 327° |
| 2026-04-27 14:36 | 50.48049 | 7.34382 | 2031 ft | 122 kts | 324° |
| 2026-04-27 14:36 | 50.48734 | 7.33545 | 1991 ft | 123 kts | 327° |
| 2026-04-27 14:36 | 50.49439 | 7.32818 | 1973 ft | 122 kts | 331° |
| 2026-04-27 14:37 | 50.50163 | 7.32130 | 1983 ft | 120 kts | 333° |
| 2026-04-27 14:37 | 50.50887 | 7.31475 | 1967 ft | 120 kts | 334° |
| 2026-04-27 14:37 | 50.51597 | 7.30798 | 1961 ft | 120 kts | 331° |
| 2026-04-27 14:37 | 50.52320 | 7.30133 | 1989 ft | 116 kts | 335° |
| 2026-04-27 14:38 | 50.53031 | 7.29539 | 1971 ft | 118 kts | 334° |
| 2026-04-27 14:38 | 50.53756 | 7.28937 | 1991 ft | 116 kts | 336° |
| 2026-04-27 14:38 | 50.54475 | 7.28379 | 1995 ft | 117 kts | 336° |
| 2026-04-27 14:38 | 50.55208 | 7.27831 | 2016 ft | 116 kts | 338° |
| 2026-04-27 14:39 | 50.55946 | 7.27247 | 1989 ft | 120 kts | 333° |
| 2026-04-27 14:39 | 50.56648 | 7.26560 | 2035 ft | 117 kts | 327° |
| 2026-04-27 14:39 | 50.57268 | 7.25695 | 2016 ft | 121 kts | 315° |
| 2026-04-27 14:39 | 50.57820 | 7.24717 | 2033 ft | 119 kts | 320° |
| 2026-04-27 14:40 | 50.58466 | 7.23907 | 2032 ft | 118 kts | 328° |
| 2026-04-27 14:40 | 50.59166 | 7.23238 | 2028 ft | 117 kts | 333° |
| 2026-04-27 14:40 | 50.59874 | 7.22605 | 2031 ft | 117 kts | 333° |
| 2026-04-27 14:40 | 50.60604 | 7.22033 | 2014 ft | 117 kts | 340° |
| 2026-04-27 14:41 | 50.61383 | 7.21626 | 2028 ft | 116 kts | 346° |
| 2026-04-27 14:41 | 50.62165 | 7.21306 | 2033 ft | 116 kts | 347° |
| 2026-04-27 14:41 | 50.62936 | 7.20957 | 2044 ft | 116 kts | 340° |
| 2026-04-27 14:41 | 50.63622 | 7.20217 | 2007 ft | 122 kts | 318° |
| 2026-04-27 14:42 | 50.64155 | 7.19241 | 2069 ft | 117 kts | 311° |
| 2026-04-27 14:42 | 50.64688 | 7.18215 | 2041 ft | 121 kts | 311° |
| 2026-04-27 14:42 | 50.65201 | 7.17190 | 2070 ft | 119 kts | 310° |
| 2026-04-27 14:42 | 50.65694 | 7.16134 | 2068 ft | 120 kts | 306° |
| 2026-04-27 14:43 | 50.66113 | 7.15008 | 2089 ft | 119 kts | 298° |
| 2026-04-27 14:43 | 50.66485 | 7.13813 | 2059 ft | 123 kts | 299° |
| 2026-04-27 14:43 | 50.66903 | 7.12641 | 2081 ft | 121 kts | 307° |
| 2026-04-27 14:43 | 50.67505 | 7.11712 | 2049 ft | 122 kts | 324° |
| 2026-04-27 14:44 | 50.68174 | 7.10942 | 2073 ft | 119 kts | 327° |
| 2026-04-27 14:44 | 50.68868 | 7.10212 | 2052 ft | 121 kts | 330° |
| 2026-04-27 14:44 | 50.69609 | 7.09598 | 2062 ft | 119 kts | 337° |
| 2026-04-27 14:44 | 50.70383 | 7.09149 | 2080 ft | 117 kts | 345° |
| 2026-04-27 14:45 | 50.71180 | 7.08837 | 2056 ft | 119 kts | 350° |
| 2026-04-27 14:45 | 50.71979 | 7.08577 | 2096 ft | 115 kts | 348° |
| 2026-04-27 14:45 | 50.72769 | 7.08277 | 2073 ft | 118 kts | 346° |
| 2026-04-27 14:45 | 50.73559 | 7.07952 | 2069 ft | 116 kts | 348° |
| 2026-04-27 14:46 | 50.74340 | 7.07569 | 1904 ft | 119 kts | 345° |
| 2026-04-27 14:46 | 50.75115 | 7.07108 | 1770 ft | 118 kts | 336° |
| 2026-04-27 14:46 | 50.75754 | 7.06326 | 1628 ft | 120 kts | 314° |
| 2026-04-27 14:46 | 50.76305 | 7.05304 | 1478 ft | 120 kts | 310° |
| 2026-04-27 14:47 | 50.76825 | 7.04292 | 1350 ft | 118 kts | 311° |
| 2026-04-27 14:47 | 50.77304 | 7.03221 | 1220 ft | 118 kts | 302° |
| 2026-04-27 14:47 | 50.77736 | 7.02116 | 1042 ft | 123 kts | 303° |
| 2026-04-27 14:47 | 50.78254 | 7.01084 | 966 ft | 116 kts | 313° |
| 2026-04-27 14:48 | 50.78830 | 7.00206 | 862 ft | 118 kts | 321° |
| 2026-04-27 14:48 | 50.80117 | 6.98748 | 838 ft | 109 kts | 334° |
| 2026-04-27 14:48 | 50.80827 | 6.98383 | 814 ft | 109 kts | 343° |
| 2026-04-27 14:49 | 50.81510 | 6.97957 | 874 ft | 101 kts | 320° |
| 2026-04-27 14:49 | 50.82053 | 6.97236 | 907 ft | 100 kts | 321° |
| 2026-04-27 14:49 | 50.82602 | 6.96571 | 946 ft | 101 kts | 333° |
| 2026-04-27 14:49 | 50.83268 | 6.96282 | 998 ft | 99 kts | 346° |
| 2026-04-27 14:50 | 50.83946 | 6.95954 | 1019 ft | 100 kts | 340° |
| 2026-04-27 14:50 | 50.84556 | 6.95432 | 1027 ft | 103 kts | 323° |
| 2026-04-27 14:50 | 50.85097 | 6.94682 | 1062 ft | 103 kts | 319° |
| 2026-04-27 14:50 | 50.85641 | 6.93972 | 1113 ft | 100 kts | 327° |
| 2026-04-27 14:51 | 50.86275 | 6.93490 | 1128 ft | 102 kts | 336° |
| 2026-04-27 14:51 | 50.86924 | 6.93011 | 1151 ft | 102 kts | 335° |
| 2026-04-27 14:51 | 50.87557 | 6.92568 | 1214 ft | 98 kts | 335° |
| 2026-04-27 14:51 | 50.88179 | 6.92063 | 1216 ft | 102 kts | 331° |
| 2026-04-27 14:52 | 50.88789 | 6.91458 | 1187 ft | 106 kts | 326° |
| 2026-04-27 14:52 | 50.89349 | 6.90733 | 1240 ft | 103 kts | 320° |
| 2026-04-27 14:52 | 50.89872 | 6.89942 | 1248 ft | 104 kts | 316° |
| 2026-04-27 14:52 | 50.90339 | 6.89058 | 1275 ft | 104 kts | 308° |
| 2026-04-27 14:53 | 50.90729 | 6.88084 | 1277 ft | 106 kts | 300° |
| 2026-04-27 14:53 | 50.91063 | 6.87052 | 1306 ft | 104 kts | 301° |
| 2026-04-27 14:53 | 50.91383 | 6.86008 | 1301 ft | 107 kts | 300° |
| 2026-04-27 14:53 | 50.91804 | 6.85062 | 1335 ft | 104 kts | 314° |
| 2026-04-27 14:54 | 50.92299 | 6.84215 | 1338 ft | 105 kts | 316° |
| 2026-04-27 14:54 | 50.92827 | 6.83418 | 1349 ft | 103 kts | 328° |
| 2026-04-27 14:54 | 50.93481 | 6.82956 | 1335 ft | 103 kts | 344° |
| 2026-04-27 14:54 | 50.94175 | 6.82723 | 1348 ft | 102 kts | 351° |
| 2026-04-27 14:55 | 50.94878 | 6.82542 | 1348 ft | 102 kts | 352° |
| 2026-04-27 14:55 | 50.95456 | 6.81956 | 1335 ft | 105 kts | 307° |
| 2026-04-27 14:55 | 50.95872 | 6.81031 | 1346 ft | 104 kts | 308° |
| 2026-04-27 14:55 | 50.96358 | 6.80180 | 1309 ft | 106 kts | 327° |
| 2026-04-27 14:56 | 50.96985 | 6.79582 | 1378 ft | 104 kts | 331° |
| 2026-04-27 14:56 | 50.97593 | 6.78976 | 1513 ft | 103 kts | 326° |
| 2026-04-27 14:56 | 50.98144 | 6.78244 | 1628 ft | 103 kts | 321° |
| 2026-04-27 14:56 | 50.98708 | 6.77545 | 1751 ft | 103 kts | 325° |
| 2026-04-27 14:57 | 50.99244 | 6.76768 | 1866 ft | 104 kts | 318° |
| 2026-04-27 14:57 | 50.99770 | 6.75979 | 1961 ft | 105 kts | 321° |
| 2026-04-27 14:57 | 51.00339 | 6.75218 | 1959 ft | 109 kts | 325° |
| 2026-04-27 14:57 | 51.00937 | 6.74477 | 1989 ft | 108 kts | 325° |
| 2026-04-27 14:58 | 51.01515 | 6.73710 | 2009 ft | 109 kts | 321° |
| 2026-04-27 14:58 | 51.02054 | 6.72846 | 2042 ft | 109 kts | 315° |
| 2026-04-27 14:58 | 51.02510 | 6.71874 | 2062 ft | 111 kts | 304° |
| 2026-04-27 14:58 | 51.02893 | 6.70814 | 2097 ft | 110 kts | 302° |
| 2026-04-27 14:59 | 51.03238 | 6.69718 | 2115 ft | 111 kts | 300° |
| 2026-04-27 14:59 | 51.03696 | 6.68735 | 2106 ft | 111 kts | 318° |
| 2026-04-27 14:59 | 51.04248 | 6.67899 | 2150 ft | 109 kts | 319° |
| 2026-04-27 14:59 | 51.04813 | 6.67092 | 2158 ft | 110 kts | 321° |
| 2026-04-27 15:00 | 51.05362 | 6.66248 | 2190 ft | 110 kts | 316° |
| 2026-04-27 15:00 | 51.05864 | 6.65318 | 2199 ft | 111 kts | 314° |
| 2026-04-27 15:00 | 51.06368 | 6.64390 | 2219 ft | 111 kts | 313° |
| 2026-04-27 15:00 | 51.06861 | 6.63417 | 2201 ft | 114 kts | 313° |
| 2026-04-27 15:01 | 51.07380 | 6.62454 | 2192 ft | 114 kts | 315° |
| 2026-04-27 15:01 | 51.07892 | 6.61497 | 2196 ft | 114 kts | 313° |
| 2026-04-27 15:01 | 51.08364 | 6.60472 | 2197 ft | 114 kts | 308° |
| 2026-04-27 15:01 | 51.08815 | 6.59437 | 2192 ft | 115 kts | 308° |
| 2026-04-27 15:02 | 51.09249 | 6.58363 | 2194 ft | 115 kts | 304° |
| 2026-04-27 15:02 | 51.09634 | 6.57258 | 2188 ft | 116 kts | 300° |
| 2026-04-27 15:02 | 51.09972 | 6.56074 | 2188 ft | 115 kts | 299° |
| 2026-04-27 15:02 | 51.10294 | 6.54903 | 2183 ft | 116 kts | 296° |
| 2026-04-27 15:03 | 51.10575 | 6.53699 | 2177 ft | 117 kts | 296° |
| 2026-04-27 15:03 | 51.10894 | 6.52532 | 2069 ft | 117 kts | 299° |
| 2026-04-27 15:03 | 51.11233 | 6.51339 | 1940 ft | 117 kts | 298° |
| 2026-04-27 15:03 | 51.11589 | 6.50190 | 1777 ft | 116 kts | 303° |
| 2026-04-27 15:04 | 51.12135 | 6.49298 | 1598 ft | 114 kts | 341° |
| 2026-04-27 15:04 | 51.12893 | 6.49174 | 1452 ft | 103 kts | 4° |
| 2026-04-27 15:04 | 51.13602 | 6.49248 | 1298 ft | 104 kts | 10° |
| 2026-04-27 15:04 | 51.14291 | 6.49512 | 1193 ft | 99 kts | 20° |
| 2026-04-27 15:05 | 51.14933 | 6.49879 | 1127 ft | 96 kts | 21° |
| 2026-04-27 15:05 | 51.15565 | 6.50209 | 1056 ft | 97 kts | 21° |
| 2026-04-27 15:05 | 51.16194 | 6.50560 | 1028 ft | 93 kts | 22° |
| 2026-04-27 15:05 | 51.16791 | 6.50975 | 1010 ft | 92 kts | 21° |
| 2026-04-27 15:06 | 51.17427 | 6.51066 | 994 ft | 92 kts | 5° |
| 2026-04-27 15:06 | 51.18064 | 6.51093 | 1039 ft | 88 kts | 4° |
| 2026-04-27 15:06 | 51.18679 | 6.51105 | 1025 ft | 93 kts | 359° |
| 2026-04-27 15:06 | 51.19300 | 6.50979 | 1064 ft | 90 kts | 352° |
| 2026-04-27 15:07 | 51.19915 | 6.50783 | 1046 ft | 92 kts | 352° |
| 2026-04-27 15:07 | 51.20558 | 6.50545 | 1057 ft | 91 kts | 348° |
| 2026-04-27 15:07 | 51.21135 | 6.50103 | 993 ft | 100 kts | 327° |
| 2026-04-27 15:07 | 51.21619 | 6.49367 | 997 ft | 98 kts | 316° |
| 2026-04-27 15:08 | 51.22077 | 6.48549 | 950 ft | 98 kts | 315° |
| 2026-04-27 15:08 | 51.22516 | 6.47755 | 921 ft | 98 kts | 315° |
| 2026-04-27 15:08 | 51.22982 | 6.46916 | 853 ft | 100 kts | 315° |
| 2026-04-27 15:08 | 51.23400 | 6.46131 | 908 ft | 87 kts | 311° |
| 2026-04-27 15:09 | 51.23876 | 6.45834 | 861 ft | 77 kts | 13° |
| 2026-04-27 15:09 | 51.24348 | 6.46152 | 744 ft | 71 kts | 33° |
| 2026-04-27 15:09 | 51.24578 | 6.46727 | 670 ft | 61 kts | 82° |
| 2026-04-27 15:09 | 51.24463 | 6.47400 | 561 ft | 63 kts | 114° |
| 2026-04-27 15:10 | 51.24242 | 6.48006 | 513 ft | 65 kts | 116° |
| 2026-04-27 15:10 | 51.23963 | 6.48577 | 437 ft | 64 kts | 126° |
| 2026-04-27 15:10 | 51.23673 | 6.49180 | 286 ft | 74 kts | 126° |
| 2026-04-27 15:10 | 51.23361 | 6.49804 | 149 ft | 69 kts | 126° |
| 2026-04-27 15:11 | 51.23125 | 6.50274 | 125 ft | 39 kts | 128° |
| 2026-04-27 15:11 | 51.22980 | 6.50562 | 125 ft | 27 kts | 130° |
| 2026-04-27 15:11 | 51.22898 | 6.50642 | 125 ft | 13 kts | 208° |
| 2026-04-27 15:11 | 51.22849 | 6.50563 | 125 ft | 8 kts | 271° |
| 2026-04-27 15:12 | 51.22901 | 6.50450 | 125 ft | 16 kts | 306° |
| 2026-04-27 15:12 | 51.22984 | 6.50282 | 125 ft | 21 kts | 309° |
| 2026-04-27 15:12 | 51.23085 | 6.50079 | 125 ft | 22 kts | 319° |
| 2026-04-27 15:12 | 51.23175 | 6.49902 | 125 ft | 20 kts | 310° |
| 2026-04-27 15:13 | 51.23259 | 6.49735 | 125 ft | 16 kts | 311° |
| 2026-04-27 15:13 | 51.23237 | 6.49671 | 125 ft | 8 kts | 170° |
| 2026-04-27 15:13 | 51.23209 | 6.49668 | 125 ft | 0 kts | 127° |